createdAt,value
2023-09-23T00:01:11.924Z,0.70
2023-09-23T00:06:15.346Z,0.70
2023-09-23T00:11:19.239Z,0.80
2023-09-23T00:16:24.220Z,0.70
2023-09-23T00:21:27.933Z,0.77
2023-09-23T00:26:31.102Z,0.77
2023-09-23T00:31:35.597Z,0.90
2023-09-23T00:36:39.447Z,0.80
2023-09-23T00:41:43.326Z,0.80
2023-09-23T00:46:47.986Z,1.00
2023-09-23T00:51:51.796Z,0.90
2023-09-23T00:56:55.320Z,0.90
2023-09-23T01:02:00.524Z,0.90
2023-09-23T01:07:03.646Z,1.10
2023-09-23T01:12:08.965Z,0.90
2023-09-23T01:17:15.690Z,0.90
2023-09-23T01:22:25.491Z,1.10
2023-09-23T01:27:28.702Z,1.00
2023-09-23T01:32:38.819Z,1.10
2023-09-23T01:37:43.465Z,0.97
2023-09-23T01:42:47.460Z,0.90
2023-09-23T01:47:50.945Z,1.00
2023-09-23T01:52:57.261Z,0.90
2023-09-23T01:58:00.701Z,1.20
2023-09-23T02:03:04.177Z,1.10
2023-09-23T02:08:09.014Z,1.10
2023-09-23T02:13:12.169Z,1.07
2023-09-23T02:18:16.703Z,1.27
2023-09-23T02:23:23.140Z,1.27
2023-09-23T02:28:26.440Z,0.83
2023-09-23T02:33:30.772Z,1.10
2023-09-23T02:38:37.243Z,0.80
2023-09-23T02:43:41.267Z,0.90
2023-09-23T02:48:44.652Z,1.13
2023-09-23T02:53:49.346Z,1.10
2023-09-23T02:58:53.965Z,0.90
2023-09-23T03:03:57.685Z,0.93
2023-09-23T03:09:02.295Z,1.00
2023-09-23T03:14:07.223Z,1.00
2023-09-23T03:19:12.714Z,0.87
2023-09-23T03:24:17.595Z,1.00
2023-09-23T03:29:20.722Z,1.10
2023-09-23T03:34:24.444Z,1.00
2023-09-23T03:39:29.864Z,1.10
2023-09-23T03:44:34.505Z,1.20
2023-09-23T03:49:37.613Z,1.20
2023-09-23T03:54:42.364Z,1.07
2023-09-23T03:59:45.534Z,1.07
2023-09-23T04:04:51.169Z,1.23
2023-09-23T04:09:55.728Z,1.30
2023-09-23T04:14:59.762Z,1.03
2023-09-23T04:20:09.228Z,1.10
2023-09-23T04:25:15.900Z,1.03
2023-09-23T04:30:19.013Z,1.10
2023-09-23T04:35:22.255Z,1.00
2023-09-23T04:40:27.382Z,1.27
2023-09-23T04:45:30.722Z,1.17
2023-09-23T04:50:33.864Z,1.10
2023-09-23T04:55:38.721Z,1.33
2023-09-23T05:00:41.981Z,1.00
2023-09-23T05:05:45.628Z,1.00
2023-09-23T05:10:51.082Z,1.50
2023-09-23T05:15:54.420Z,1.20
2023-09-23T05:20:57.625Z,1.03
2023-09-23T05:26:02.197Z,1.10
2023-09-23T05:31:06.076Z,1.30
2023-09-23T05:36:09.324Z,1.30
2023-09-23T05:41:15.031Z,1.23
2023-09-23T05:46:18.143Z,1.10
2023-09-23T05:51:21.310Z,1.00
2023-09-23T05:56:25.922Z,1.00
2023-09-23T06:01:29.111Z,1.10
2023-09-23T06:06:32.784Z,1.10
2023-09-23T06:11:38.500Z,1.00
2023-09-23T06:16:41.729Z,0.80
2023-09-23T06:21:44.927Z,0.90
2023-09-23T06:26:49.624Z,1.10
2023-09-23T06:31:53.278Z,1.30
2023-09-23T06:36:56.400Z,1.40
2023-09-23T06:42:01.193Z,1.60
2023-09-23T06:47:05.071Z,1.33
2023-09-23T06:52:08.413Z,1.40
2023-09-23T06:57:12.952Z,1.10
2023-09-23T07:02:16.444Z,1.23
2023-09-23T07:07:19.670Z,1.10
2023-09-23T07:12:24.992Z,1.10
2023-09-23T07:17:28.959Z,1.00
2023-09-23T07:22:32.245Z,1.00
2023-09-23T07:27:36.753Z,0.90
2023-09-23T07:32:40.037Z,0.90
2023-09-23T07:37:43.496Z,1.00
2023-09-23T07:42:47.990Z,1.17
2023-09-23T07:47:51.314Z,1.17
2023-09-23T07:52:54.833Z,1.00
2023-09-23T07:57:59.478Z,1.20
2023-09-23T08:03:02.654Z,0.90
2023-09-23T08:08:07.464Z,0.93
2023-09-23T08:13:12.093Z,0.90
2023-09-23T08:18:15.428Z,0.97
2023-09-23T08:23:18.647Z,1.10
2023-09-23T08:28:24.063Z,0.87
2023-09-23T08:33:29.030Z,0.90
2023-09-23T08:38:32.418Z,0.80
2023-09-23T08:43:38.894Z,0.80
2023-09-23T08:48:42.920Z,1.10
2023-09-23T08:53:47.848Z,0.90
2023-09-23T08:58:53.209Z,1.40
2023-09-23T09:03:56.409Z,1.00
2023-09-23T09:08:59.566Z,0.90
2023-09-23T09:14:04.080Z,1.10
2023-09-23T09:19:07.461Z,1.10
2023-09-23T09:24:11.460Z,0.90
2023-09-23T09:29:17.697Z,0.90
2023-09-23T09:34:26.383Z,0.70
2023-09-23T09:39:33.554Z,0.70
2023-09-23T09:44:39.284Z,0.60
2023-09-23T09:49:43.894Z,0.80
2023-09-23T09:54:47.231Z,1.00
2023-09-23T09:59:53.426Z,0.83
2023-09-23T10:05:04.069Z,1.30
2023-09-23T10:10:14.813Z,1.00
2023-09-23T10:15:28.957Z,1.10
2023-09-23T10:20:35.899Z,1.07
2023-09-23T10:25:40.692Z,1.30
2023-09-23T10:30:46.097Z,1.30
2023-09-23T10:35:49.402Z,1.17
2023-09-23T10:40:53.846Z,0.90
2023-09-23T10:45:59.266Z,1.00
2023-09-23T10:51:04.390Z,1.00
2023-09-23T10:56:11.986Z,1.17
2023-09-23T11:01:18.123Z,0.97
2023-09-23T11:06:21.368Z,1.10
2023-09-23T11:11:24.596Z,0.90
2023-09-23T11:16:29.176Z,1.00
2023-09-23T11:21:32.479Z,0.80
2023-09-23T11:26:40.006Z,0.90
2023-09-23T11:31:44.539Z,1.30
2023-09-23T11:36:48.164Z,1.00
2023-09-23T11:41:58.587Z,0.80
2023-09-23T11:47:03.804Z,0.90
2023-09-23T11:52:13.620Z,0.80
2023-09-23T11:57:16.984Z,0.83
2023-09-23T12:02:22.630Z,0.90
2023-09-23T12:07:26.073Z,1.00
2023-09-23T12:12:29.353Z,0.90
2023-09-23T12:17:33.906Z,0.80
2023-09-23T12:22:37.285Z,0.90
2023-09-23T12:27:40.384Z,0.70
2023-09-23T12:32:45.063Z,0.90
2023-09-23T12:37:48.297Z,0.70
2023-09-23T12:42:52.591Z,0.83
2023-09-23T12:47:58.207Z,1.00
2023-09-23T12:53:01.803Z,0.87
2023-09-23T12:58:06.582Z,0.90
2023-09-23T13:03:11.822Z,1.10
2023-09-23T13:08:16.162Z,1.00
2023-09-23T13:13:19.446Z,1.00
2023-09-23T13:18:23.990Z,1.00
2023-09-23T13:23:27.183Z,0.90
2023-09-23T13:28:31.485Z,0.90
2023-09-23T13:33:37.001Z,1.20
2023-09-23T13:38:40.153Z,0.80
2023-09-23T13:43:43.523Z,0.90
2023-09-23T13:48:48.370Z,0.90
2023-09-23T13:53:51.703Z,1.10
2023-09-23T13:58:55.354Z,0.80
2023-09-23T14:04:00.111Z,0.87
2023-09-23T14:09:04.483Z,1.10
2023-09-23T14:14:07.675Z,0.93
2023-09-23T14:19:12.191Z,0.90
2023-09-23T14:24:15.327Z,0.90
2023-09-23T14:29:18.492Z,1.00
2023-09-23T14:34:23.714Z,1.13
2023-09-23T14:39:26.918Z,1.13
2023-09-23T14:44:30.100Z,1.10
2023-09-23T14:49:34.624Z,1.03
2023-09-23T14:54:38.106Z,1.20
2023-09-23T14:59:41.764Z,1.30
2023-09-23T15:04:46.344Z,1.10
2023-09-23T15:09:49.569Z,1.00
2023-09-23T15:14:52.874Z,1.00
2023-09-23T15:19:57.482Z,1.23
2023-09-23T15:25:00.800Z,1.20
2023-09-23T15:30:04.202Z,0.90
2023-09-23T15:35:09.947Z,1.10
2023-09-23T15:40:15.190Z,1.20
2023-09-23T15:45:18.436Z,1.00
2023-09-23T15:50:22.975Z,1.00
2023-09-23T15:55:26.311Z,1.03
2023-09-23T16:00:29.553Z,0.90
2023-09-23T16:05:34.182Z,1.00
2023-09-23T16:10:37.347Z,1.00
2023-09-23T16:15:40.614Z,0.87
2023-09-23T16:20:45.347Z,0.93
2023-09-23T16:25:48.545Z,0.80
2023-09-23T16:30:51.708Z,1.10
2023-09-23T16:35:56.685Z,0.77
2023-09-23T16:40:59.878Z,1.13
2023-09-23T16:46:03.032Z,1.10
2023-09-23T16:51:08.748Z,1.20
2023-09-23T16:56:11.886Z,0.87
2023-09-23T17:01:16.526Z,1.30
2023-09-23T17:06:21.417Z,1.00
2023-09-23T17:11:25.717Z,1.30
2023-09-23T17:16:28.908Z,1.60
2023-09-23T17:21:33.570Z,1.30
2023-09-23T17:26:36.739Z,1.30
2023-09-23T17:31:40.196Z,1.30
2023-09-23T17:36:44.747Z,1.90
2023-09-23T17:41:48.382Z,4.80
2023-09-23T17:46:51.582Z,3.60
2023-09-23T17:51:56.090Z,2.57
2023-09-23T17:56:59.342Z,1.80
2023-09-23T18:02:02.637Z,1.50
2023-09-23T18:07:07.261Z,1.63
2023-09-23T18:12:11.839Z,1.80
2023-09-23T18:17:16.128Z,1.83
2023-09-23T18:22:20.823Z,1.87
2023-09-23T18:27:23.918Z,4.60
2023-09-23T18:32:27.148Z,3.30
2023-09-23T18:37:31.704Z,2.43
2023-09-23T18:42:34.831Z,2.10
2023-09-23T18:47:38.769Z,2.10
2023-09-23T18:52:43.418Z,1.90
2023-09-23T18:57:46.596Z,1.90
2023-09-23T19:02:50.128Z,1.90
2023-09-23T19:07:54.707Z,1.70
2023-09-23T19:12:58.395Z,1.57
2023-09-23T19:18:01.766Z,2.00
2023-09-23T19:23:06.593Z,1.60
2023-09-23T19:28:09.910Z,1.97
2023-09-23T19:33:13.619Z,1.90
2023-09-23T19:38:18.368Z,1.90
2023-09-23T19:43:22.181Z,1.90
2023-09-23T19:48:25.596Z,1.87
2023-09-23T19:53:30.168Z,2.00
2023-09-23T19:58:33.410Z,1.97
2023-09-23T20:03:36.652Z,1.90
2023-09-23T20:08:41.311Z,1.90
2023-09-23T20:13:45.318Z,2.10
2023-09-23T20:18:48.974Z,2.13
2023-09-23T20:23:53.596Z,2.07
2023-09-23T20:28:56.780Z,2.00
2023-09-23T20:34:00.488Z,2.00
2023-09-23T20:39:05.698Z,2.00
2023-09-23T20:44:09.215Z,2.40
2023-09-23T20:49:14.294Z,2.03
2023-09-23T20:54:19.227Z,2.27
2023-09-23T20:59:22.396Z,2.27
2023-09-23T21:04:25.706Z,2.10
2023-09-23T21:09:30.549Z,2.03
2023-09-23T21:14:33.979Z,1.90
2023-09-23T21:19:37.247Z,2.20
2023-09-23T21:24:41.888Z,1.70
2023-09-23T21:29:45.048Z,1.83
2023-09-23T21:34:48.748Z,2.00
2023-09-23T21:39:54.800Z,1.90
2023-09-23T21:44:59.153Z,1.90
2023-09-23T21:50:03.116Z,1.80
2023-09-23T21:55:08.416Z,1.70
2023-09-23T22:00:27.272Z,1.70
2023-09-23T22:05:32.411Z,2.10
2023-09-23T22:10:36.950Z,1.83
2023-09-23T22:15:40.170Z,1.80
2023-09-23T22:20:44.038Z,1.80
2023-09-23T22:25:48.882Z,1.60
2023-09-23T22:30:52.260Z,1.47
2023-09-23T22:35:55.506Z,1.33
2023-09-23T22:41:00.070Z,1.50
2023-09-23T22:46:03.383Z,1.40
2023-09-23T22:51:06.898Z,1.70
2023-09-23T22:56:12.588Z,1.70
2023-09-23T23:01:17.190Z,1.63
2023-09-23T23:06:20.776Z,1.80
2023-09-23T23:11:25.712Z,1.90
2023-09-23T23:16:29.016Z,1.30
2023-09-23T23:21:32.203Z,1.50
2023-09-23T23:26:36.804Z,1.40
2023-09-23T23:31:41.240Z,1.60
2023-09-23T23:36:45.195Z,1.50
2023-09-23T23:41:49.820Z,1.40
2023-09-23T23:46:53.132Z,1.50
2023-09-23T23:51:57.199Z,1.80
2023-09-23T23:57:01.788Z,1.80
